Time;durP1;ratioP1;P1;durP2;ratioP2;P2;SDS_P1;SDS_P2;PMS_P1;PMS_P2;Temp;Humidity;BMP_temperature;BMP_pressure;BME280_temperature;BME280_humidity;BME280_pressure;Samples;Min_cycle;Max_cycle;Signal;HPM_P1;HPM_P2
2023/06/01 00:02:13;;;;;;;15.85;4.53;;;;;;;4.09;62.45;97400.78;5032949;28;20084;-56
2023/06/01 00:04:40;;;;;;;14.23;4.40;;;;;;;4.05;62.56;97394.31;5033013;28;20100;-55
2023/06/01 00:07:08;;;;;;;13.20;4.30;;;;;;;4.04;62.79;97401.38;5033208;28;20045;-55
2023/06/01 00:09:35;;;;;;;15.25;4.72;;;;;;;4.03;63.01;97404.19;5032714;28;20046;-55
2023/06/01 00:12:03;;;;;;;14.88;4.82;;;;;;;3.96;63.53;97395.47;5033014;28;20567;-55
2023/06/01 00:14:30;;;;;;;15.93;4.47;;;;;;;3.84;63.99;97397.84;5032913;28;20045;-55
2023/06/01 00:16:57;;;;;;;19.83;4.55;;;;;;;3.87;64.23;97404.50;5032817;28;20499;-55
2023/06/01 00:19:25;;;;;;;17.80;4.65;;;;;;;3.87;64.05;97396.63;5032747;28;20080;-56
2023/06/01 00:21:53;;;;;;;20.67;4.75;;;;;;;3.83;64.85;97404.06;5032757;28;20045;-56
2023/06/01 00:24:20;;;;;;;12.95;4.53;;;;;;;3.76;64.92;97397.97;5032277;28;20056;-55
2023/06/01 00:26:47;;;;;;;13.07;4.75;;;;;;;3.68;65.67;97392.88;5032785;28;20046;-55
2023/06/01 00:29:15;;;;;;;14.23;4.43;;;;;;;3.70;65.88;97394.31;5032728;28;20045;-55
2023/06/01 00:31:42;;;;;;;16.70;4.70;;;;;;;3.61;66.36;97392.84;5035552;28;20057;-55
2023/06/01 00:34:09;;;;;;;20.20;5.18;;;;;;;3.60;66.59;97406.94;5036220;28;20406;-55
2023/06/01 00:36:35;;;;;;;17.52;5.13;;;;;;;3.57;66.71;97394.22;5035944;28;20423;-55
2023/06/01 00:39:02;;;;;;;16.55;5.38;;;;;;;3.48;67.16;97400.59;5036061;28;20045;-55
2023/06/01 00:41:31;;;;;;;26.88;5.70;;;;;;;3.46;67.65;97395.56;5036199;28;20053;-55
2023/06/01 00:43:58;;;;;;;16.77;5.05;;;;;;;3.50;68.08;97399.41;5036062;28;20128;-55
2023/06/01 00:46:26;;;;;;;21.50;5.43;;;;;;;3.40;68.26;97397.13;5036016;28;20041;-55
2023/06/01 00:48:53;;;;;;;15.82;5.53;;;;;;;3.39;68.71;97394.69;5035599;28;20049;-55
2023/06/01 00:51:20;;;;;;;19.55;5.60;;;;;;;3.31;69.58;97389.56;5034699;28;20132;-55
2023/06/01 00:53:47;;;;;;;17.17;5.95;;;;;;;3.22;69.71;97396.75;5035966;28;20046;-55
2023/06/01 00:56:14;;;;;;;16.52;5.70;;;;;;;3.16;70.21;97384.41;5035963;28;20045;-55
2023/06/01 00:58:41;;;;;;;23.80;6.18;;;;;;;3.04;70.89;97384.94;5035980;28;20049;-56
2023/06/01 01:01:18;;;;;;;19.80;5.70;;;;;;;3.05;70.93;97385.72;5034781;28;20095;-55
2023/06/01 01:03:49;;;;;;;19.33;6.00;;;;;;;2.99;71.30;97386.50;5035802;28;20080;-55
2023/06/01 01:06:45;;;;;;;20.08;6.10;;;;;;;2.94;71.63;97381.81;5035506;28;20150;-55
2023/06/01 01:09:36;;;;;;;17.38;6.53;;;;;;;2.99;71.78;97389.91;5035279;28;20046;-54
2023/06/01 01:12:11;;;;;;;23.60;6.53;;;;;;;2.94;72.28;97391.47;5033575;28;20140;-55
2023/06/01 01:14:49;;;;;;;22.88;6.45;;;;;;;2.92;72.50;97390.84;5035788;28;20046;-55
2023/06/01 01:17:24;;;;;;;24.40;6.75;;;;;;;2.77;72.99;97389.09;5035250;28;20489;-55
2023/06/01 01:20:14;;;;;;;23.73;6.60;;;;;;;2.74;73.59;97391.28;5035485;28;20128;-55
2023/06/01 01:23:24;;;;;;;19.92;6.90;;;;;;;2.79;73.66;97388.94;5035034;28;20053;-55
2023/06/01 01:26:09;;;;;;;22.40;7.38;;;;;;;2.76;74.04;97387.47;5035133;28;20050;-55
2023/06/01 01:28:48;;;;;;;19.58;7.03;;;;;;;2.64;74.95;97387.16;5035485;28;20132;-55
2023/06/01 01:31:22;;;;;;;20.05;7.40;;;;;;;2.66;74.53;97389.59;5035126;28;20041;-55
2023/06/01 01:33:53;;;;;;;22.27;7.40;;;;;;;2.68;74.63;97384.97;5034994;28;20372;-55
2023/06/01 01:36:21;;;;;;;21.77;6.80;;;;;;;2.64;75.13;97383.75;5035129;28;20053;-55
2023/06/01 01:38:48;;;;;;;24.15;7.70;;;;;;;2.47;75.62;97378.75;5034927;28;20048;-55
2023/06/01 01:41:16;;;;;;;21.83;7.75;;;;;;;2.54;75.48;97386.63;5035338;28;20057;-55
2023/06/01 01:43:43;;;;;;;25.13;7.55;;;;;;;2.48;75.52;97384.78;5034865;28;20076;-55
2023/06/01 01:46:30;;;;;;;21.65;8.45;;;;;;;2.42;76.59;97386.31;5035008;28;20045;-55
2023/06/01 01:49:11;;;;;;;26.52;8.38;;;;;;;2.36;76.79;97381.81;5034479;28;20055;-55
2023/06/01 01:52:03;;;;;;;20.53;7.87;;;;;;;2.32;76.81;97377.13;5034789;28;20046;-55
2023/06/01 01:54:32;;;;;;;26.85;8.13;;;;;;;2.35;76.96;97387.22;5034916;28;20081;-55
2023/06/01 01:57:00;;;;;;;21.23;7.45;;;;;;;2.35;77.10;97387.22;5035171;28;20048;-55
2023/06/01 01:59:28;;;;;;;22.75;8.15;;;;;;;2.27;77.69;97382.91;5034629;28;20045;-54
2023/06/01 02:01:55;;;;;;;30.00;9.43;;;;;;;2.25;77.83;97377.06;5034445;28;20052;-55
2023/06/01 02:04:22;;;;;;;28.95;8.65;;;;;;;2.07;78.55;97375.66;5034537;28;20053;-55
2023/06/01 02:06:49;;;;;;;26.60;8.85;;;;;;;2.11;78.67;97376.91;5034610;28;20107;-55
2023/06/01 02:09:16;;;;;;;28.17;8.98;;;;;;;2.09;78.69;97373.66;5034447;28;20049;-55
2023/06/01 02:11:43;;;;;;;24.13;8.63;;;;;;;2.02;78.99;97370.16;5034604;28;20469;-57
2023/06/01 02:14:11;;;;;;;23.23;9.18;;;;;;;1.97;79.82;97374.31;5034156;28;20046;-55
2023/06/01 02:16:37;;;;;;;32.85;9.65;;;;;;;1.77;80.54;97377.47;5034461;28;20095;-55
2023/06/01 02:19:04;;;;;;;28.15;9.40;;;;;;;1.71;80.58;97371.16;5034001;28;20452;-55
2023/06/01 02:21:31;;;;;;;23.92;9.43;;;;;;;1.71;80.80;97371.16;5034455;28;20045;-55
2023/06/01 02:24:04;;;;;;;28.63;10.00;;;;;;;1.77;80.83;97376.66;5033783;28;20069;-55
2023/06/01 02:26:31;;;;;;;27.50;9.67;;;;;;;1.61;81.18;97375.00;5034200;28;20100;-55
2023/06/01 02:28:57;;;;;;;25.02;9.88;;;;;;;1.49;81.86;97370.25;5049370;28;20099;-55
2023/06/01 02:31:25;;;;;;;24.83;9.70;;;;;;;1.46;82.49;97365.34;5034175;28;20080;-55
2023/06/01 02:33:52;;;;;;;29.80;10.63;;;;;;;1.43;82.10;97372.75;5033943;28;20049;-55
2023/06/01 02:36:18;;;;;;;26.83;10.18;;;;;;;1.44;82.00;97371.75;5033771;28;20057;-55
2023/06/01 02:38:46;;;;;;;21.35;9.48;;;;;;;1.38;81.83;97373.25;5034271;28;20393;-54
2023/06/01 02:41:13;;;;;;;27.52;10.60;;;;;;;1.42;81.84;97371.94;5033946;28;20503;-57
2023/06/01 02:43:40;;;;;;;22.50;9.93;;;;;;;1.43;81.37;97376.16;5034043;28;20053;-54
2023/06/01 02:46:07;;;;;;;25.30;11.20;;;;;;;1.37;81.72;97369.03;5033896;28;20045;-55
2023/06/01 02:48:38;;;;;;;26.33;10.75;;;;;;;1.36;82.24;97364.78;5032941;28;20399;-55
2023/06/01 02:51:06;;;;;;;34.03;11.90;;;;;;;1.47;81.86;97371.38;5032541;28;20055;-55
2023/06/01 02:53:32;;;;;;;29.20;11.15;;;;;;;1.39;81.51;97376.72;5033527;28;20045;-55
2023/06/01 02:55:59;;;;;;;30.25;11.52;;;;;;;1.31;81.41;97373.19;5033804;28;20525;-55
2023/06/01 02:58:46;;;;;;;30.38;12.35;;;;;;;1.14;82.40;97372.50;5033664;28;20049;-55
2023/06/01 03:01:27;;;;;;;28.15;12.20;;;;;;;1.13;82.62;97370.88;5033433;28;20494;-55
2023/06/01 03:03:54;;;;;;;31.63;12.27;;;;;;;1.02;83.36;97363.47;5033108;28;20514;-55
2023/06/01 03:06:23;;;;;;;36.67;12.10;;;;;;;1.02;83.15;97366.09;5033581;28;20056;-55
2023/06/01 03:09:12;;;;;;;33.53;12.50;;;;;;;0.98;83.84;97377.84;5033642;28;20045;-55
2023/06/01 03:11:49;;;;;;;27.13;11.48;;;;;;;0.87;84.72;97370.44;5029750;28;20041;-55
2023/06/01 03:14:17;;;;;;;34.58;14.02;;;;;;;0.78;85.52;97364.47;5033496;28;20057;-55
2023/06/01 03:16:45;;;;;;;28.38;10.85;;;;;;;0.75;85.71;97372.66;5033420;28;20052;-54
2023/06/01 03:19:16;;;;;;;30.53;10.97;;;;;;;0.75;86.00;97368.25;5033336;28;20073;-55
2023/06/01 03:21:46;;;;;;;34.13;11.93;;;;;;;0.59;86.52;97368.34;5033514;28;20302;-55
2023/06/01 03:24:17;;;;;;;32.45;12.75;;;;;;;0.61;85.86;97378.63;5033231;28;20491;-55
2023/06/01 03:26:44;;;;;;;33.80;12.02;;;;;;;0.57;85.85;97362.50;5032588;28;20482;-55
2023/06/01 03:29:11;;;;;;;38.03;12.20;;;;;;;0.52;86.21;97365.59;5033233;28;20104;-55
2023/06/01 03:31:37;;;;;;;36.40;13.05;;;;;;;0.48;86.10;97366.94;5033368;28;20549;-54
2023/06/01 03:34:04;;;;;;;27.35;12.45;;;;;;;0.50;86.26;97369.38;5033257;28;20045;-55
2023/06/01 03:36:32;;;;;;;28.65;11.80;;;;;;;0.45;86.50;97363.88;5033488;28;20049;-55
2023/06/01 03:38:59;;;;;;;35.80;12.88;;;;;;;0.38;87.41;97377.59;5033198;28;20084;-55
2023/06/01 03:41:27;;;;;;;30.20;12.57;;;;;;;0.48;87.01;97368.75;5033355;28;20096;-54
2023/06/01 03:43:54;;;;;;;27.92;11.02;;;;;;;0.48;86.99;97371.34;5033137;28;20057;-55
2023/06/01 03:46:21;;;;;;;33.97;12.05;;;;;;;0.45;86.87;97367.28;5033033;28;20053;-55
2023/06/01 03:48:48;;;;;;;26.45;11.23;;;;;;;0.35;87.74;97377.13;5032503;28;20050;-55
2023/06/01 03:51:14;;;;;;;27.60;12.40;;;;;;;0.25;88.20;97373.91;5032821;28;20080;-55
2023/06/01 03:53:41;;;;;;;25.55;11.20;;;;;;;0.21;88.73;97381.25;5032910;28;20057;-55
2023/06/01 03:56:08;;;;;;;26.98;11.73;;;;;;;0.21;88.58;97381.25;5033021;28;20033;-55
2023/06/01 03:58:38;;;;;;;24.65;11.70;;;;;;;0.21;88.52;97377.84;5033457;28;20553;-55
2023/06/01 04:01:05;;;;;;;27.67;12.00;;;;;;;0.15;88.74;97379.34;5032810;28;20055;-56
2023/06/01 04:03:33;;;;;;;31.50;12.27;;;;;;;0.13;88.94;97383.94;5033019;28;20063;-55
2023/06/01 04:06:01;;;;;;;25.73;11.75;;;;;;;0.07;89.27;97388.00;5034599;28;20080;-55
2023/06/01 04:08:29;;;;;;;28.02;11.27;;;;;;;0.00;89.65;97394.88;5036827;28;20056;-55
2023/06/01 04:10:56;;;;;;;28.63;11.95;;;;;;;-0.10;90.01;97391.66;5036393;28;20049;-55
2023/06/01 04:13:22;;;;;;;28.48;13.23;;;;;;;-0.04;90.11;97391.81;5036521;28;20128;-55
2023/06/01 04:15:49;;;;;;;27.25;12.70;;;;;;;-0.07;90.24;97391.34;5036512;28;20409;-55
2023/06/01 04:18:19;;;;;;;26.27;12.65;;;;;;;-0.12;90.54;97388.41;5036732;28;20372;-55
2023/06/01 04:20:52;;;;;;;28.80;12.98;;;;;;;-0.13;90.08;97391.97;5036464;28;20052;-55
2023/06/01 04:23:19;;;;;;;30.75;14.82;;;;;;;-0.14;89.33;97390.38;5036259;28;20080;-55
2023/06/01 04:25:50;;;;;;;34.53;13.68;;;;;;;-0.13;89.49;97392.78;5036417;28;20049;-55
2023/06/01 04:28:17;;;;;;;28.15;14.38;;;;;;;-0.11;89.14;97393.47;5036485;28;20069;-55
2023/06/01 04:30:47;;;;;;;35.65;14.90;;;;;;;-0.08;88.67;97395.72;5036196;28;20053;-55
2023/06/01 04:33:13;;;;;;;32.17;15.18;;;;;;;-0.08;88.94;97400.13;5036056;28;20597;-55
2023/06/01 04:35:43;;;;;;;27.98;15.18;;;;;;;0.05;88.52;97404.78;5034752;28;20124;-55
2023/06/01 04:38:10;;;;;;;31.48;16.08;;;;;;;0.00;88.31;97397.50;5036440;28;20487;-55
2023/06/01 04:40:36;;;;;;;30.77;16.25;;;;;;;0.02;88.13;97402.50;5036320;28;20092;-56
2023/06/01 04:43:03;;;;;;;28.17;16.15;;;;;;;0.03;88.24;97406.75;5051479;28;20132;-55
2023/06/01 04:45:30;;;;;;;30.60;15.45;;;;;;;0.02;88.09;97399.91;5036107;28;20057;-55
2023/06/01 04:47:57;;;;;;;34.50;16.85;;;;;;;-0.06;87.71;97404.16;5035618;28;20080;-55
2023/06/01 04:50:34;;;;;;;36.00;17.10;;;;;;;-0.11;88.72;97405.66;5034201;28;20037;-55
2023/06/01 04:53:01;;;;;;;33.85;16.77;;;;;;;-0.09;88.40;97393.25;5036012;28;20083;-55
2023/06/01 04:55:28;;;;;;;32.63;16.60;;;;;;;-0.08;88.11;97400.13;5035816;28;20457;-55
2023/06/01 04:57:55;;;;;;;39.55;16.65;;;;;;;-0.02;88.18;97408.09;5034611;28;20049;-55
2023/06/01 05:00:22;;;;;;;35.08;17.58;;;;;;;-0.03;88.00;97403.03;5036021;28;20107;-55
2023/06/01 05:02:50;;;;;;;38.25;17.25;;;;;;;0.05;87.59;97402.19;5035722;28;20498;-55
2023/06/01 05:05:19;;;;;;;37.20;17.60;;;;;;;0.13;87.55;97407.38;5035938;28;20052;-55
2023/06/01 05:07:46;;;;;;;36.05;19.52;;;;;;;0.22;87.15;97410.75;5035613;28;20121;-56
2023/06/01 05:10:13;;;;;;;38.22;19.65;;;;;;;0.24;86.60;97409.63;5035874;28;20050;-55
2023/06/01 05:12:45;;;;;;;46.08;21.52;;;;;;;0.23;86.24;97412.38;5031471;28;20079;-54
2023/06/01 05:15:13;;;;;;;42.90;22.73;;;;;;;-0.10;87.69;97402.88;5034715;28;20045;-55
2023/06/01 05:17:40;;;;;;;55.70;21.98;;;;;;;-0.11;88.08;97403.88;5034411;28;20052;-54
2023/06/01 05:20:11;;;;;;;48.92;22.35;;;;;;;-0.17;88.25;97407.13;5035178;28;20388;-54
2023/06/01 05:22:40;;;;;;;51.53;23.65;;;;;;;-0.11;87.93;97406.50;5035009;28;20057;-54
2023/06/01 05:25:07;;;;;;;54.75;25.70;;;;;;;-0.10;88.74;97407.28;5035302;28;20049;-54
2023/06/01 05:27:36;;;;;;;54.55;24.38;;;;;;;-0.08;88.18;97413.16;5035422;28;20056;-54
2023/06/01 05:30:03;;;;;;;51.70;24.25;;;;;;;0.05;86.80;97405.59;5050626;28;20041;-54
2023/06/01 05:32:30;;;;;;;45.95;22.50;;;;;;;0.14;86.43;97409.78;5035224;28;20064;-54
2023/06/01 05:35:04;;;;;;;57.10;25.67;;;;;;;0.18;85.88;97420.69;5035130;28;20538;-54
2023/06/01 05:37:31;;;;;;;51.45;25.90;;;;;;;-0.05;86.15;97407.59;5035195;28;20041;-54
2023/06/01 05:39:58;;;;;;;58.45;28.17;;;;;;;-0.29;86.98;97411.06;5034992;28;20100;-55
2023/06/01 05:42:24;;;;;;;62.20;26.85;;;;;;;-0.41;86.64;97405.41;5034926;28;20054;-55
2023/06/01 05:44:51;;;;;;;61.53;27.73;;;;;;;-0.52;87.85;97401.34;5035145;28;20133;-54
2023/06/01 05:47:18;;;;;;;58.83;27.38;;;;;;;-0.54;88.10;97394.72;5034928;28;20041;-54
2023/06/01 05:49:45;;;;;;;62.72;27.38;;;;;;;-0.51;87.75;97404.78;5033859;28;20046;-54
2023/06/01 05:52:13;;;;;;;54.03;27.13;;;;;;;-0.45;87.47;97404.94;5034736;28;20446;-54
2023/06/01 05:54:41;;;;;;;60.47;27.10;;;;;;;-0.34;87.38;97413.38;5034628;28;20406;-54
2023/06/01 05:57:08;;;;;;;54.80;27.95;;;;;;;-0.42;87.15;97409.81;5034375;28;20054;-55
2023/06/01 05:59:35;;;;;;;57.10;26.52;;;;;;;-0.37;86.71;97413.72;5034904;28;20561;-54
2023/06/01 06:02:02;;;;;;;65.72;26.65;;;;;;;-0.52;86.95;97409.16;5034279;28;20048;-55
2023/06/01 06:04:28;;;;;;;63.13;28.05;;;;;;;-0.55;87.44;97414.69;5034707;28;20099;-56
2023/06/01 06:06:55;;;;;;;60.58;26.90;;;;;;;-0.59;87.73;97416.00;5033934;28;20060;-54
2023/06/01 06:09:23;;;;;;;60.53;27.13;;;;;;;-0.64;88.30;97413.09;5034518;28;20049;-54
2023/06/01 06:11:49;;;;;;;72.13;29.27;;;;;;;-0.62;87.87;97411.97;5034133;28;20041;-54
2023/06/01 06:14:16;;;;;;;60.95;28.63;;;;;;;-0.54;86.60;97418.94;5034036;28;20514;-60
2023/06/01 06:16:43;;;;;;;71.15;29.92;;;;;;;-0.56;87.08;97418.31;5034468;28;20045;-54
2023/06/01 06:19:09;;;;;;;77.75;34.97;;;;;;;-0.62;86.53;97421.53;5034462;28;20092;-54
2023/06/01 06:21:37;;;;;;;70.75;32.22;;;;;;;-0.65;86.71;97421.88;5034111;28;20052;-55
2023/06/01 06:24:05;;;;;;;65.90;30.17;;;;;;;-0.58;85.71;97428.06;5034119;28;20414;-55
2023/06/01 06:26:31;;;;;;;64.45;31.52;;;;;;;-0.47;85.45;97430.31;5034227;28;20044;-55
2023/06/01 06:28:58;;;;;;;64.07;29.30;;;;;;;-0.33;84.48;97438.44;5033446;28;20100;-55
2023/06/01 06:31:25;;;;;;;55.70;28.23;;;;;;;-0.27;83.83;97437.78;5034116;28;20049;-55
2023/06/01 06:33:52;;;;;;;56.05;26.88;;;;;;;-0.18;82.70;97435.97;5034090;28;20076;-55
2023/06/01 06:36:19;;;;;;;61.88;28.50;;;;;;;-0.08;81.82;97434.78;5034103;28;20080;-55
2023/06/01 06:38:46;;;;;;;59.28;26.15;;;;;;;0.02;81.22;97433.78;5033819;28;20045;-54
2023/06/01 06:41:13;;;;;;;53.28;24.90;;;;;;;-0.06;80.78;97424.22;5033933;28;20516;-54
2023/06/01 06:43:40;;;;;;;54.22;24.55;;;;;;;-0.05;81.19;97431.06;5033875;28;20041;-54
2023/06/01 06:46:07;;;;;;;50.97;24.73;;;;;;;-0.02;80.39;97428.09;5034010;28;20045;-55
2023/06/01 06:48:34;;;;;;;52.65;24.95;;;;;;;-0.05;80.79;97436.28;5033353;28;20044;-55
2023/06/01 06:51:02;;;;;;;50.53;24.10;;;;;;;0.02;79.88;97433.78;5020091;28;20554;-57
2023/06/01 06:53:29;;;;;;;52.20;24.30;;;;;;;-0.12;79.51;97415.28;5025430;28;20048;-57
2023/06/01 06:55:56;;;;;;;51.50;24.52;;;;;;;0.12;79.32;97447.44;5030022;28;20063;-57
2023/06/01 06:58:22;;;;;;;49.47;25.90;;;;;;;0.11;79.17;97443.22;5030176;28;20052;-57
2023/06/01 07:00:49;;;;;;;53.42;24.90;;;;;;;0.06;78.64;97441.13;5030746;28;20042;-59
2023/06/01 07:03:16;;;;;;;55.53;25.70;;;;;;;-0.19;78.91;97442.97;5032137;28;20053;-57
2023/06/01 07:05:45;;;;;;;57.55;26.88;;;;;;;-0.22;79.35;97449.34;5014968;28;20076;-57
2023/06/01 07:08:11;;;;;;;61.35;28.25;;;;;;;-0.11;79.69;97442.13;5012972;28;20046;-57
2023/06/01 07:10:38;;;;;;;61.60;29.08;;;;;;;-0.04;79.66;97433.50;5007848;28;20054;-58
2023/06/01 07:13:05;;;;;;;64.72;31.48;;;;;;;0.00;78.44;97441.81;5021429;28;20131;-57
2023/06/01 07:15:31;;;;;;;57.25;29.70;;;;;;;0.03;78.35;97436.22;5022679;28;20048;-58
2023/06/01 07:17:58;;;;;;;59.72;29.80;;;;;;;-0.03;77.91;97435.13;5025156;28;20100;-58
2023/06/01 07:20:25;;;;;;;67.20;32.15;;;;;;;0.06;78.08;97441.13;5032768;28;20258;-57
2023/06/01 07:22:51;;;;;;;63.67;31.75;;;;;;;0.08;78.44;97438.34;5026610;28;20053;-57
2023/06/01 07:25:18;;;;;;;66.43;30.38;;;;;;;-0.10;78.29;97433.34;5032046;28;20052;-57
2023/06/01 07:27:45;;;;;;;59.80;29.23;;;;;;;-0.01;78.51;97448.78;5029790;28;20049;-57
2023/06/01 07:30:13;;;;;;;62.53;30.42;;;;;;;-0.10;78.36;97443.78;5032212;28;20080;-57
2023/06/01 07:32:39;;;;;;;62.88;28.52;;;;;;;-0.04;78.57;97441.31;5030362;28;20046;-59
2023/06/01 07:35:07;;;;;;;60.35;28.90;;;;;;;0.02;77.57;97447.66;5030205;28;20511;-57
2023/06/01 07:37:34;;;;;;;62.55;30.55;;;;;;;0.08;77.12;97446.97;5028410;28;20049;-56
2023/06/01 07:40:00;;;;;;;61.70;31.63;;;;;;;0.18;79.21;97442.38;5023968;28;20522;-59
2023/06/01 07:42:27;;;;;;;61.67;30.77;;;;;;;0.25;77.84;97447.72;5022062;28;20056;-59
2023/06/01 07:44:54;;;;;;;72.15;32.10;;;;;;;0.29;79.76;97442.97;5023824;28;20693;-57
2023/06/01 07:47:21;;;;;;;57.63;32.13;;;;;;;0.41;77.41;97446.84;5027669;28;20050;-57
2023/06/01 07:49:47;;;;;;;58.80;29.25;;;;;;;0.50;75.97;97451.03;5024511;28;20048;-57
2023/06/01 07:52:14;;;;;;;58.80;30.33;;;;;;;0.57;76.15;97451.19;5013696;28;20061;-59
2023/06/01 07:54:41;;;;;;;64.47;30.65;;;;;;;0.49;74.76;97441.59;5010920;28;20506;-57
2023/06/01 07:57:07;;;;;;;66.35;32.85;;;;;;;0.54;76.39;97438.47;5021866;28;20049;-56
2023/06/01 07:59:34;;;;;;;59.83;28.92;;;;;;;0.53;75.49;97449.91;5034682;28;20088;-57
2023/06/01 08:02:01;;;;;;;60.38;31.00;;;;;;;0.58;78.16;97444.97;5018662;28;20046;-57
2023/06/01 08:04:33;;;;;;;82.03;38.28;;;;;;;0.49;74.21;97435.56;5017420;28;20125;-57
2023/06/01 08:07:03;;;;;;;82.32;38.03;;;;;;;0.59;74.30;97436.16;5029768;28;20049;-61
2023/06/01 08:09:30;;;;;;;66.65;33.55;;;;;;;0.73;74.21;97445.88;5028806;28;20045;-58
2023/06/01 08:11:57;;;;;;;77.88;33.10;;;;;;;0.91;75.40;97444.78;5039728;28;20545;-57
2023/06/01 08:14:23;;;;;;;67.18;33.60;;;;;;;1.09;73.75;97450.56;5027147;28;20494;-58
2023/06/01 08:16:51;;;;;;;65.20;34.13;;;;;;;1.13;72.03;97449.22;5028799;28;20076;-57
2023/06/01 08:19:18;;;;;;;71.43;35.28;;;;;;;1.24;71.93;97447.19;5028529;28;20068;-57
2023/06/01 08:21:45;;;;;;;67.47;35.85;;;;;;;1.31;71.25;97435.03;5011077;28;20046;-58
2023/06/01 08:24:13;;;;;;;74.72;35.72;;;;;;;1.41;71.07;97442.63;5016273;28;20099;-58
2023/06/01 08:26:39;;;;;;;79.30;37.30;;;;;;;1.44;70.02;97447.50;5016349;28;20037;-58
2023/06/01 08:29:06;;;;;;;83.47;40.58;;;;;;;1.44;71.59;97431.84;5027819;28;20041;-57
2023/06/01 08:31:33;;;;;;;75.53;36.70;;;;;;;1.54;70.84;97435.81;5023202;28;20052;-57
2023/06/01 08:34:00;;;;;;;78.90;39.47;;;;;;;1.62;70.18;97431.50;5009132;28;20057;-57
2023/06/01 08:36:27;;;;;;;77.70;38.58;;;;;;;1.73;69.08;97439.72;5018529;28;20402;-59
2023/06/01 08:38:56;;;;;;;73.53;38.03;;;;;;;1.80;70.25;97432.00;5026829;28;20091;-58
2023/06/01 08:41:36;;;;;;;88.28;39.05;;;;;;;2.02;69.50;97440.75;5020894;28;20054;-58
2023/06/01 08:44:04;;;;;;;82.32;40.05;;;;;;;2.13;68.90;97439.47;5022142;28;20057;-58
2023/06/01 08:46:31;;;;;;;94.60;41.15;;;;;;;2.15;68.64;97434.03;5033922;28;20084;-58
2023/06/01 08:48:59;;;;;;;85.50;42.70;;;;;;;2.14;69.22;97435.88;5020153;28;20042;-58
2023/06/01 08:51:26;;;;;;;81.82;39.22;;;;;;;2.27;67.57;97433.44;5022768;28;20070;-58
2023/06/01 08:53:56;;;;;;;83.32;41.22;;;;;;;2.30;66.15;97433.06;5030079;28;20052;-58
2023/06/01 08:56:23;;;;;;;90.75;40.83;;;;;;;2.43;66.71;97435.03;5028792;28;20050;-58
2023/06/01 08:58:51;;;;;;;89.38;41.85;;;;;;;2.47;66.56;97431.06;5015947;28;20065;-58
2023/06/01 09:01:20;;;;;;;83.15;40.15;;;;;;;2.36;66.22;97428.91;5031991;28;20376;-58
2023/06/01 09:03:48;;;;;;;82.53;40.97;;;;;;;2.41;66.10;97429.16;5031371;28;20049;-58
2023/06/01 09:06:15;;;;;;;82.28;39.03;;;;;;;2.49;65.51;97430.84;5034301;28;20045;-56
2023/06/01 09:08:42;;;;;;;81.13;39.80;;;;;;;2.64;66.15;97423.00;5026629;28;20495;-56
2023/06/01 09:11:08;;;;;;;80.15;38.95;;;;;;;2.84;65.77;97418.78;5023798;28;20051;-57
2023/06/01 09:13:37;;;;;;;82.72;38.42;;;;;;;2.91;63.34;97424.09;5000138;28;20491;-58
2023/06/01 09:16:04;;;;;;;83.93;38.20;;;;;;;3.03;63.13;97425.19;5032282;28;20655;-58
2023/06/01 09:18:31;;;;;;;83.20;38.35;;;;;;;2.74;62.51;97418.25;5022764;28;20452;-59
2023/06/01 09:21:15;;;;;;;73.18;38.08;;;;;;;2.88;63.44;97413.97;5019131;28;20057;-58
2023/06/01 09:23:42;;;;;;;87.00;40.78;;;;;;;3.04;62.40;97416.34;5030224;28;20588;-58
2023/06/01 09:26:11;;;;;;;84.95;41.38;;;;;;;3.12;61.21;97410.19;5029788;28;20139;-58
2023/06/01 09:28:56;;;;;;;83.88;39.33;;;;;;;3.16;60.91;97408.78;5020625;28;20471;-59
2023/06/01 09:31:40;;;;;;;80.82;38.35;;;;;;;3.38;61.18;97416.63;5032271;28;20053;-58
2023/06/01 09:34:11;;;;;;;79.28;39.35;;;;;;;3.23;60.01;97419.34;5018055;28;20095;-58
2023/06/01 09:36:38;;;;;;;79.22;38.97;;;;;;;3.24;58.82;97418.34;5032733;28;20095;-57
2023/06/01 09:39:07;;;;;;;71.05;37.33;;;;;;;3.19;59.13;97407.63;5030749;28;20033;-57
2023/06/01 09:44:29;;;;;;;76.05;38.58;;;;;;;3.49;59.52;97412.69;5064461;28;20398;-58
2023/06/01 09:46:59;;;;;;;76.55;37.17;;;;;;;3.42;59.65;97410.84;5060803;28;20055;-55
2023/06/01 09:49:28;;;;;;;72.97;36.50;;;;;;;3.57;60.77;97402.88;5058135;28;20501;-55
2023/06/01 09:52:16;;;;;;;61.22;34.45;;;;;;;3.62;59.82;97402.28;5049083;28;20048;-57
2023/06/01 09:54:45;;;;;;;60.97;32.42;;;;;;;3.99;59.71;97409.00;5063258;28;20044;-57
2023/06/01 09:57:12;;;;;;;66.97;35.55;;;;;;;4.26;57.98;97421.44;5067058;28;20041;-57
2023/06/01 09:59:42;;;;;;;61.25;30.83;;;;;;;4.35;56.56;97410.59;5048835;28;20512;-58
2023/06/01 10:02:19;;;;;;;57.15;28.80;;;;;;;4.60;57.46;97417.94;5049623;28;20095;-58
2023/06/01 10:04:50;;;;;;;53.55;28.48;;;;;;;4.87;57.26;97418.03;5043019;28;20044;-58
2023/06/01 10:07:18;;;;;;;52.28;27.42;;;;;;;4.70;54.70;97421.00;5032643;28;20050;-57
2023/06/01 10:09:50;;;;;;;52.83;24.05;;;;;;;4.56;55.45;97414.09;5040222;28;20053;-58
2023/06/01 10:12:17;;;;;;;47.15;21.95;;;;;;;4.68;54.25;97416.97;5046417;28;20045;-57
2023/06/01 10:14:44;;;;;;;43.35;20.67;;;;;;;4.81;54.81;97406.50;5041334;28;20052;-57
2023/06/01 10:17:14;;;;;;;33.05;18.58;;;;;;;4.99;53.32;97413.81;5049345;28;20037;-57
2023/06/01 10:19:41;;;;;;;36.78;17.52;;;;;;;5.15;53.29;97413.44;5040817;28;20041;-59
2023/06/01 10:22:11;;;;;;;43.38;17.52;;;;;;;5.19;51.89;97408.59;5045649;28;20052;-58
2023/06/01 10:24:41;;;;;;;45.58;19.25;;;;;;;5.30;53.12;97402.72;5039758;28;20422;-59
2023/06/01 10:27:35;;;;;;;42.70;18.40;;;;;;;5.57;52.42;97405.38;5043161;28;20405;-59
2023/06/01 10:30:02;;;;;;;39.65;20.27;;;;;;;5.57;51.96;97398.28;5039689;28;20140;-58
2023/06/01 10:32:40;;;;;;;38.05;19.80;;;;;;;5.56;50.57;97409.78;5047808;28;20045;-59
2023/06/01 10:35:10;;;;;;;38.15;21.17;;;;;;;5.44;50.68;97413.22;5044818;28;20075;-59
2023/06/01 10:37:36;;;;;;;38.60;19.08;;;;;;;5.52;50.46;97395.44;5053307;28;20099;-58
2023/06/01 10:40:24;;;;;;;39.70;18.05;;;;;;;5.61;50.90;97401.31;5042190;28;20709;-58
2023/06/01 10:42:51;;;;;;;35.25;16.08;;;;;;;5.64;50.67;97407.97;5047594;28;20128;-58
2023/06/01 10:45:37;;;;;;;36.35;16.35;;;;;;;5.81;50.58;97397.84;5041122;28;20512;-58
2023/06/01 10:48:06;;;;;;;32.47;15.02;;;;;;;5.89;50.17;97403.69;5042735;28;20074;-58
2023/06/01 10:50:35;;;;;;;30.50;14.75;;;;;;;6.00;49.96;97410.16;5049998;28;20058;-58
2023/06/01 10:53:24;;;;;;;34.45;16.33;;;;;;;6.14;50.32;97408.31;5043907;28;20041;-57
2023/06/01 10:56:26;;;;;;;35.17;14.65;;;;;;;6.38;50.19;97414.72;5031412;28;20053;-57
2023/06/01 10:59:13;;;;;;;28.98;14.10;;;;;;;6.41;48.32;97414.31;5023314;28;20057;-58
2023/06/01 11:01:45;;;;;;;28.75;12.50;;;;;;;6.19;47.93;97413.78;5030925;28;20045;-59
2023/06/01 11:04:13;;;;;;;29.30;13.38;;;;;;;6.25;48.92;97405.03;5026321;28;20083;-58
2023/06/01 11:06:42;;;;;;;39.92;13.55;;;;;;;6.45;50.62;97404.97;5030424;28;20056;-58
2023/06/01 11:09:11;;;;;;;28.13;12.35;;;;;;;6.63;47.95;97404.28;5028773;28;20458;-58
2023/06/01 11:11:57;;;;;;;37.35;13.32;;;;;;;6.63;48.58;97396.38;5031146;28;20073;-58
2023/06/01 11:14:29;;;;;;;33.33;13.65;;;;;;;6.79;49.12;97404.84;5002981;28;20041;-58
2023/06/01 11:17:32;;;;;;;28.75;12.23;;;;;;;6.72;48.10;97405.66;5032114;28;20068;-59
2023/06/01 11:20:05;;;;;;;31.58;12.57;;;;;;;6.96;49.09;97407.78;5027057;28;20047;-58
2023/06/01 11:22:36;;;;;;;32.35;13.13;;;;;;;7.01;47.42;97395.56;5032672;28;20049;-58
2023/06/01 11:25:06;;;;;;;26.33;12.15;;;;;;;6.77;46.58;97398.94;5027869;28;20803;-58
2023/06/01 11:27:33;;;;;;;27.20;12.00;;;;;;;6.87;47.09;97399.31;5031948;28;20490;-58
2023/06/01 11:30:00;;;;;;;33.78;11.65;;;;;;;7.04;47.38;97400.41;5029049;28;20127;-58
2023/06/01 11:32:27;;;;;;;35.08;12.88;;;;;;;7.07;46.67;97388.63;5031221;28;20091;-58
2023/06/01 11:34:54;;;;;;;28.60;10.98;;;;;;;7.20;47.12;97393.00;5030020;28;20125;-59
2023/06/01 11:37:21;;;;;;;28.88;11.43;;;;;;;7.05;45.67;97383.56;5033938;28;20508;-59
2023/06/01 11:39:48;;;;;;;27.05;10.98;;;;;;;6.98;45.93;97379.38;5043588;28;20494;-59